Sect Verdum, Puerto Rico
Current Conditions -  °F | °C
As of 3:50 AM on Thursday 29 Jan 2015 (Local Time) from TJBQ Reporting Station
Clear Clear  
Wind Chill: 70°   Ceiling: Unl
Heat Index: 70°   Visibility: 10mi
Dew Point: 68°   Wind: 5mph
Humidity: 94%   Direction: 160°SSE
Pressure: 29.96"   Gusts: NA
Location:  18.4951°N, 67.0273°W
Report Text: TJBQ 290750Z 16004KT 10SM SKC 21/20 A2996 RMK RWY 08 ATIS Y
Loading
Personal Weather Stations






























Interactive Weather Map New forecast layout! Learn more

10-Day Weather Forecast

Advertisements
Track Severe Weather on mobile